createdAt,value
2022-09-10T00:01:06.976Z,19.35
2022-09-10T00:03:54.790Z,19.36
2022-09-10T00:06:41.602Z,19.37
2022-09-10T00:09:27.167Z,19.39
2022-09-10T00:12:13.528Z,19.40
2022-09-10T00:14:59.210Z,19.38
2022-09-10T00:17:45.125Z,19.42
2022-09-10T00:20:31.244Z,19.43
2022-09-10T00:23:19.131Z,19.45
2022-09-10T00:26:15.133Z,19.42
2022-09-10T00:29:01.670Z,19.42
2022-09-10T00:31:47.430Z,19.41
2022-09-10T00:34:33.265Z,19.40
2022-09-10T00:37:19.185Z,19.40
2022-09-10T00:40:05.685Z,19.39
2022-09-10T00:42:51.636Z,19.45
2022-09-10T00:45:37.750Z,19.46
2022-09-10T00:48:30.995Z,19.45
2022-09-10T00:51:16.861Z,19.43
2022-09-10T00:54:03.317Z,19.45
2022-09-10T00:56:49.778Z,19.45
2022-09-10T00:59:36.077Z,19.45
2022-09-10T01:02:22.088Z,19.44
2022-09-10T01:05:09.940Z,19.43
2022-09-10T01:07:58.031Z,19.43
2022-09-10T01:11:09.100Z,19.43
2022-09-10T01:14:28.811Z,19.42
2022-09-10T01:17:21.253Z,19.43
2022-09-10T01:20:32.453Z,19.35
2022-09-10T01:23:41.405Z,19.40
2022-09-10T01:26:42.715Z,19.40
2022-09-10T01:29:44.575Z,19.39
2022-09-10T01:32:40.649Z,19.38
2022-09-10T01:35:50.084Z,19.38
2022-09-10T01:38:44.207Z,19.39
2022-09-10T01:41:31.454Z,19.35
2022-09-10T01:44:43.905Z,19.35
2022-09-10T01:47:54.466Z,19.34
2022-09-10T01:51:17.877Z,19.34
2022-09-10T01:54:37.166Z,19.36
2022-09-10T01:57:23.308Z,19.39
2022-09-10T02:00:11.586Z,19.38
2022-09-10T02:03:05.910Z,19.42
2022-09-10T02:05:54.944Z,19.44
2022-09-10T02:08:41.883Z,19.46
2022-09-10T02:11:29.242Z,19.46
2022-09-10T02:14:21.708Z,19.42
2022-09-10T02:17:31.863Z,19.48
2022-09-10T02:20:19.500Z,19.46
2022-09-10T02:23:05.449Z,19.51
2022-09-10T02:25:51.392Z,19.49
2022-09-10T02:28:37.764Z,19.49
2022-09-10T02:31:23.966Z,19.49
2022-09-10T02:34:10.809Z,19.48
2022-09-10T02:36:57.654Z,19.46
2022-09-10T02:39:45.477Z,19.45
2022-09-10T02:42:35.001Z,19.45
2022-09-10T02:45:21.387Z,19.44
2022-09-10T02:48:07.605Z,19.42
2022-09-10T02:50:54.692Z,19.42
2022-09-10T02:53:40.774Z,19.43
2022-09-10T02:56:27.506Z,19.44
2022-09-10T02:59:13.272Z,19.46
2022-09-10T03:02:00.126Z,19.48
2022-09-10T03:04:46.590Z,19.49
2022-09-10T03:07:33.101Z,19.52
2022-09-10T03:10:19.606Z,19.52
2022-09-10T03:13:05.389Z,19.51
2022-09-10T03:15:52.888Z,19.50
2022-09-10T03:18:40.519Z,19.47
2022-09-10T03:21:29.415Z,19.48
2022-09-10T03:24:16.992Z,19.46
2022-09-10T03:27:04.315Z,19.47
2022-09-10T03:29:50.054Z,19.47
2022-09-10T03:32:37.303Z,19.46
2022-09-10T03:35:25.368Z,19.45
2022-09-10T03:38:11.833Z,19.45
2022-09-10T03:40:58.701Z,19.44
2022-09-10T03:43:46.837Z,19.42
2022-09-10T03:46:34.252Z,19.44
2022-09-10T03:49:22.935Z,19.44
2022-09-10T03:52:12.676Z,19.46
2022-09-10T03:55:00.496Z,19.45
2022-09-10T03:57:47.274Z,19.47
2022-09-10T04:00:34.609Z,19.48
2022-09-10T04:03:20.704Z,19.49
2022-09-10T04:06:10.417Z,19.49
2022-09-10T04:08:56.717Z,19.48
2022-09-10T04:11:42.771Z,19.49
2022-09-10T04:14:29.968Z,19.50
2022-09-10T04:17:15.803Z,19.50
2022-09-10T04:20:03.497Z,19.53
2022-09-10T04:22:53.699Z,19.55
2022-09-10T04:25:39.833Z,19.56
2022-09-10T04:28:26.333Z,19.56
2022-09-10T04:31:13.464Z,19.57
2022-09-10T04:34:03.125Z,19.56
2022-09-10T04:36:53.647Z,19.56
2022-09-10T04:39:40.319Z,19.56
2022-09-10T04:42:26.399Z,19.53
2022-09-10T04:45:13.011Z,19.55
2022-09-10T04:48:04.827Z,19.55
2022-09-10T04:51:17.423Z,19.56
2022-09-10T04:54:08.038Z,19.55
2022-09-10T04:56:57.005Z,19.57
2022-09-10T04:59:43.497Z,19.58
2022-09-10T05:02:30.299Z,19.58
2022-09-10T05:05:16.410Z,19.61
2022-09-10T05:08:05.069Z,19.61
2022-09-10T05:10:50.856Z,19.60
2022-09-10T05:13:36.976Z,19.62
2022-09-10T05:16:24.022Z,19.63
2022-09-10T05:19:22.753Z,19.69
2022-09-10T05:22:14.702Z,19.71
2022-09-10T05:25:01.727Z,19.77
2022-09-10T05:27:48.361Z,19.81
2022-09-10T05:30:38.436Z,19.83
2022-09-10T05:33:25.135Z,19.88
2022-09-10T05:36:11.659Z,19.88
2022-09-10T05:39:00.391Z,19.95
2022-09-10T05:41:48.934Z,19.97
2022-09-10T05:44:35.252Z,19.92
2022-09-10T05:47:22.240Z,19.96
2022-09-10T05:50:08.710Z,19.95
2022-09-10T05:52:57.135Z,19.93
2022-09-10T05:55:46.139Z,19.93
2022-09-10T05:58:34.512Z,19.91
2022-09-10T06:01:20.717Z,19.89
2022-09-10T06:04:07.028Z,19.86
2022-09-10T06:06:54.276Z,19.85
2022-09-10T06:09:40.190Z,19.85
2022-09-10T06:12:46.429Z,19.86
2022-09-10T06:15:35.898Z,19.90
2022-09-10T06:18:22.468Z,20.00
2022-09-10T06:21:14.420Z,20.10
2022-09-10T06:24:02.296Z,20.22
2022-09-10T06:26:51.997Z,20.30
2022-09-10T06:29:40.183Z,20.46
2022-09-10T06:32:27.982Z,20.55
2022-09-10T06:35:14.106Z,20.62
2022-09-10T06:38:00.169Z,20.68
2022-09-10T06:40:57.870Z,20.71
2022-09-10T06:44:22.466Z,20.75
2022-09-10T06:48:37.546Z,20.78
2022-09-10T06:51:13.713Z,20.87
2022-09-10T06:54:02.837Z,20.92
2022-09-10T06:56:49.549Z,20.99
2022-09-10T06:59:35.398Z,21.04
2022-09-10T07:02:21.684Z,21.07
2022-09-10T07:05:10.935Z,21.15
2022-09-10T07:07:57.983Z,21.15
2022-09-10T07:10:45.849Z,21.19
2022-09-10T07:13:34.846Z,21.23
2022-09-10T07:17:31.116Z,21.31
2022-09-10T07:20:18.053Z,21.37
2022-09-10T07:23:08.902Z,21.43
2022-09-10T07:26:19.721Z,21.55
2022-09-10T07:29:36.606Z,21.68
2022-09-10T07:33:39.198Z,21.83
2022-09-10T07:36:25.649Z,21.92
2022-09-10T07:39:24.928Z,21.96
2022-09-10T07:42:11.849Z,21.96
2022-09-10T07:49:58.553Z,21.96
2022-09-10T07:52:52.891Z,21.95
2022-09-10T07:55:41.424Z,22.03
2022-09-10T07:59:02.718Z,22.03
2022-09-10T08:02:02.954Z,22.06
2022-09-10T08:04:49.609Z,22.07
2022-09-10T08:07:58.641Z,22.08
2022-09-10T08:10:47.182Z,22.09
2022-09-10T08:13:37.325Z,22.16
2022-09-10T08:16:24.830Z,22.21
2022-09-10T08:19:14.998Z,22.26
2022-09-10T08:22:01.438Z,22.36
2022-09-10T08:24:53.501Z,22.47
2022-09-10T08:27:42.787Z,22.65
2022-09-10T08:30:29.021Z,22.76
2022-09-10T08:33:16.794Z,22.92
2022-09-10T08:36:04.809Z,23.07
2022-09-10T08:38:51.242Z,23.18
2022-09-10T08:41:41.072Z,23.31
2022-09-10T08:45:00.329Z,23.40
2022-09-10T08:48:19.483Z,23.46
2022-09-10T08:51:29.260Z,23.53
2022-09-10T08:54:26.957Z,23.61
2022-09-10T08:57:36.895Z,23.69
2022-09-10T09:00:45.680Z,23.79
2022-09-10T09:03:39.020Z,23.91
2022-09-10T09:06:36.261Z,24.01
2022-09-10T09:09:22.473Z,24.06
2022-09-10T09:13:08.142Z,24.14
2022-09-10T09:16:38.819Z,24.19
2022-09-10T09:19:34.682Z,24.31
2022-09-10T09:22:53.947Z,24.42
2022-09-10T09:26:29.882Z,24.56
2022-09-10T09:29:42.412Z,24.67
2022-09-10T09:33:48.200Z,24.79
2022-09-10T09:36:37.984Z,24.92
2022-09-10T09:40:07.143Z,25.02
2022-09-10T09:43:05.172Z,25.12
2022-09-10T09:45:53.494Z,25.16
2022-09-10T09:48:53.620Z,25.26
2022-09-10T09:52:31.889Z,25.33
2022-09-10T09:55:33.006Z,25.39
2022-09-10T09:58:21.866Z,25.46
2022-09-10T10:01:13.281Z,25.50
2022-09-10T10:04:02.911Z,25.58
2022-09-10T10:06:57.873Z,25.70
2022-09-10T10:09:44.414Z,25.83
2022-09-10T10:12:31.757Z,25.99
2022-09-10T10:15:36.663Z,26.18
2022-09-10T10:18:22.691Z,26.33
2022-09-10T10:21:11.473Z,26.50
2022-09-10T10:23:57.235Z,26.59
2022-09-10T10:26:45.755Z,26.65
2022-09-10T10:29:31.760Z,26.71
2022-09-10T10:32:19.782Z,26.84
2022-09-10T10:35:27.092Z,26.95
2022-09-10T10:38:34.562Z,27.03
2022-09-10T10:41:45.329Z,27.06
2022-09-10T10:44:56.451Z,27.07
2022-09-10T10:47:55.066Z,27.04
2022-09-10T10:50:52.939Z,27.02
2022-09-10T10:54:22.829Z,27.02
2022-09-10T10:57:54.578Z,27.04
2022-09-10T11:00:44.176Z,27.35
2022-09-10T11:03:53.034Z,27.72
2022-09-10T11:06:45.438Z,28.10
2022-09-10T11:09:41.033Z,28.36
2022-09-10T11:12:41.970Z,28.68
2022-09-10T11:16:05.834Z,29.17
2022-09-10T11:19:32.146Z,29.60
2022-09-10T11:22:22.831Z,30.15
2022-09-10T11:25:37.886Z,30.86
2022-09-10T11:29:08.923Z,31.16
2022-09-10T11:32:27.180Z,31.11
2022-09-10T11:35:29.238Z,30.84
2022-09-10T11:38:57.559Z,30.51
2022-09-10T11:41:46.951Z,30.10
2022-09-10T11:45:03.624Z,29.81
2022-09-10T11:48:11.589Z,29.43
2022-09-10T11:51:25.882Z,29.20
2022-09-10T11:54:17.013Z,29.03
2022-09-10T11:57:25.480Z,29.39
2022-09-10T12:00:17.172Z,30.46
2022-09-10T12:03:37.001Z,32.06
2022-09-10T12:06:39.525Z,33.52
2022-09-10T12:10:30.857Z,34.69
2022-09-10T12:13:24.262Z,35.60
2022-09-10T12:16:50.766Z,36.66
2022-09-10T12:19:50.158Z,37.80
2022-09-10T12:22:39.046Z,38.72
2022-09-10T12:25:37.636Z,39.65
2022-09-10T12:28:45.860Z,40.74
2022-09-10T12:32:23.943Z,41.49
2022-09-10T12:36:21.147Z,42.67
2022-09-10T12:39:29.301Z,43.61
2022-09-10T12:42:29.961Z,44.05
2022-09-10T12:46:12.648Z,44.54
2022-09-10T12:49:10.046Z,44.69
2022-09-10T12:53:01.804Z,45.28
2022-09-10T12:56:29.927Z,45.44
2022-09-10T12:59:27.181Z,45.88
2022-09-10T13:02:27.947Z,46.13
2022-09-10T13:05:36.693Z,46.33
2022-09-10T13:08:34.815Z,46.73
2022-09-10T13:11:24.771Z,46.77
2022-09-10T13:14:24.706Z,46.81
2022-09-10T13:17:48.340Z,47.19
2022-09-10T13:20:35.597Z,47.13
2022-09-10T13:23:47.673Z,47.53
2022-09-10T13:27:53.514Z,47.66
2022-09-10T13:31:18.843Z,47.57
2022-09-10T13:34:52.043Z,47.39
2022-09-10T13:38:33.492Z,47.61
2022-09-10T13:41:25.024Z,47.49
2022-09-10T13:44:46.699Z,47.63
2022-09-10T13:48:01.827Z,47.75
2022-09-10T13:51:12.897Z,47.12
2022-09-10T13:54:09.284Z,46.63
2022-09-10T13:56:56.297Z,46.24
2022-09-10T13:59:43.122Z,46.23
2022-09-10T14:03:13.015Z,46.73
2022-09-10T14:06:04.281Z,46.55
2022-09-10T14:12:08.040Z,47.20
2022-09-10T14:14:56.965Z,47.45
2022-09-10T14:18:08.315Z,48.00
2022-09-10T14:21:04.242Z,47.94
2022-09-10T14:23:50.460Z,47.82
2022-09-10T14:26:36.673Z,48.02
2022-09-10T14:29:26.167Z,48.32
2022-09-10T14:32:33.381Z,48.83
2022-09-10T14:35:49.414Z,49.11
2022-09-10T14:38:38.167Z,49.01
2022-09-10T14:41:29.684Z,49.22
2022-09-10T14:44:20.346Z,48.75
2022-09-10T14:47:09.309Z,47.34
2022-09-10T14:49:57.203Z,45.62
2022-09-10T14:52:43.113Z,43.97
2022-09-10T14:55:31.083Z,42.41
2022-09-10T14:58:17.002Z,40.96
2022-09-10T15:01:04.015Z,39.67
2022-09-10T15:03:49.729Z,38.46
2022-09-10T15:06:37.222Z,37.38
2022-09-10T15:09:24.978Z,36.44
2022-09-10T15:12:23.090Z,35.64
2022-09-10T15:15:21.847Z,34.82
2022-09-10T15:18:14.609Z,34.14
2022-09-10T15:21:01.678Z,33.55
2022-09-10T15:23:55.733Z,33.16
2022-09-10T15:26:42.723Z,32.74
2022-09-10T15:29:39.234Z,32.32
2022-09-10T15:32:25.307Z,31.96
2022-09-10T15:35:11.360Z,31.57
2022-09-10T15:37:57.755Z,31.22
2022-09-10T15:40:44.189Z,31.09
2022-09-10T15:43:30.122Z,31.26
2022-09-10T15:47:05.341Z,31.65
2022-09-10T15:51:05.472Z,32.32
2022-09-10T15:53:52.816Z,32.88
2022-09-10T15:56:39.754Z,32.99
2022-09-10T15:59:25.592Z,32.75
2022-09-10T16:02:18.858Z,32.46
2022-09-10T16:05:06.039Z,32.02
2022-09-10T16:07:51.981Z,31.60
2022-09-10T16:11:19.408Z,31.18
2022-09-10T16:14:49.074Z,30.79
2022-09-10T16:17:35.367Z,30.37
2022-09-10T16:20:21.638Z,30.09
2022-09-10T16:23:10.815Z,29.79
2022-09-10T16:25:56.729Z,29.53
2022-09-10T16:28:58.530Z,29.26
2022-09-10T16:31:47.205Z,28.92
2022-09-10T16:34:33.212Z,28.55
2022-09-10T16:37:19.454Z,28.16
2022-09-10T16:40:05.974Z,27.78
2022-09-10T16:42:51.685Z,27.41
2022-09-10T16:45:37.435Z,27.11
2022-09-10T16:48:23.148Z,26.82
2022-09-10T16:51:16.661Z,26.53
2022-09-10T16:54:05.651Z,26.21
2022-09-10T16:56:51.493Z,26.02
2022-09-10T16:59:37.330Z,25.83
2022-09-10T17:02:23.420Z,25.66
2022-09-10T17:05:09.864Z,25.53
2022-09-10T17:07:55.540Z,25.37
2022-09-10T17:10:41.510Z,25.26
2022-09-10T17:13:27.249Z,25.16
2022-09-10T17:16:26.370Z,25.08
2022-09-10T17:19:15.049Z,24.96
2022-09-10T17:22:01.051Z,24.88
2022-09-10T17:24:49.349Z,24.78
2022-09-10T17:27:36.358Z,24.73
2022-09-10T17:30:22.260Z,24.65
2022-09-10T17:33:08.266Z,24.57
2022-09-10T17:36:00.214Z,24.50
2022-09-10T17:38:46.242Z,24.43
2022-09-10T17:41:32.270Z,24.39
2022-09-10T17:44:18.285Z,24.33
2022-09-10T17:47:04.331Z,24.25
2022-09-10T17:49:52.179Z,24.19
2022-09-10T17:52:38.172Z,24.14
2022-09-10T17:55:31.731Z,24.07
2022-09-10T17:58:19.560Z,24.01
2022-09-10T18:01:08.704Z,23.98
2022-09-10T18:03:55.655Z,23.91
2022-09-10T18:06:41.623Z,23.89
2022-09-10T18:09:27.806Z,23.84
2022-09-10T18:12:13.959Z,23.80
2022-09-10T18:15:01.144Z,23.84
2022-09-10T18:17:47.169Z,23.81
2022-09-10T18:20:32.882Z,23.79
2022-09-10T18:23:19.415Z,23.80
2022-09-10T18:26:16.404Z,23.77
2022-09-10T18:29:10.487Z,23.79
2022-09-10T18:31:58.257Z,23.81
2022-09-10T18:34:44.423Z,23.81
2022-09-10T18:37:30.327Z,23.80
2022-09-10T18:40:16.170Z,23.81
2022-09-10T18:43:01.959Z,23.80
2022-09-10T18:45:47.829Z,23.82
2022-09-10T18:48:34.541Z,23.82
2022-09-10T18:51:22.493Z,23.81
2022-09-10T18:54:09.619Z,23.81
2022-09-10T18:56:57.298Z,23.78
2022-09-10T18:59:44.150Z,23.77
2022-09-10T19:02:30.131Z,23.76
2022-09-10T19:05:16.277Z,23.73
2022-09-10T19:08:02.745Z,23.71
2022-09-10T19:10:48.635Z,23.66
2022-09-10T19:13:34.578Z,23.56
2022-09-10T19:16:22.766Z,23.53
2022-09-10T19:19:18.660Z,23.45
2022-09-10T19:22:10.640Z,23.43
2022-09-10T19:24:56.672Z,23.41
2022-09-10T19:27:45.108Z,23.38
2022-09-10T19:30:35.632Z,23.33
2022-09-10T19:33:21.457Z,23.26
2022-09-10T19:36:14.379Z,23.21
2022-09-10T19:39:01.798Z,23.13
2022-09-10T19:41:48.937Z,23.13
2022-09-10T19:44:34.659Z,23.08
2022-09-10T19:47:20.967Z,23.09
2022-09-10T19:50:07.224Z,22.99
2022-09-10T19:52:53.774Z,23.00
2022-09-10T19:55:39.944Z,22.96
2022-09-10T19:58:25.875Z,22.97
2022-09-10T20:01:14.294Z,22.91
2022-09-10T20:04:01.765Z,22.92
2022-09-10T20:06:47.772Z,22.90
2022-09-10T20:09:36.778Z,22.86
2022-09-10T20:12:25.811Z,22.83
2022-09-10T20:15:11.759Z,22.80
2022-09-10T20:17:57.929Z,22.77
2022-09-10T20:20:43.817Z,22.74
2022-09-10T20:23:29.621Z,22.72
2022-09-10T20:26:17.911Z,22.66
2022-09-10T20:29:07.880Z,22.63
2022-09-10T20:31:58.651Z,22.60
2022-09-10T20:34:45.294Z,22.48
2022-09-10T20:37:31.312Z,22.40
2022-09-10T20:40:17.401Z,22.32
2022-09-10T20:43:03.244Z,22.21
2022-09-10T20:45:49.401Z,22.13
2022-09-10T20:48:35.214Z,22.09
2022-09-10T20:51:21.430Z,21.98
2022-09-10T20:54:10.846Z,22.01
2022-09-10T20:56:56.744Z,21.94
2022-09-10T20:59:44.112Z,21.91
2022-09-10T21:02:30.122Z,21.86
2022-09-10T21:05:16.403Z,21.80
2022-09-10T21:08:03.537Z,21.76
2022-09-10T21:10:49.842Z,21.70
2022-09-10T21:13:36.471Z,21.69
2022-09-10T21:16:28.393Z,21.60
2022-09-10T21:19:16.165Z,21.55
2022-09-10T21:22:02.914Z,21.44
2022-09-10T21:24:48.717Z,21.34
2022-09-10T21:27:34.477Z,21.32
2022-09-10T21:30:20.299Z,21.27
2022-09-10T21:33:07.182Z,21.20
2022-09-10T21:36:02.844Z,21.14
2022-09-10T21:38:53.333Z,21.06
2022-09-10T21:41:42.500Z,21.02
2022-09-10T21:44:28.460Z,20.94
2022-09-10T21:47:14.431Z,20.92
2022-09-10T21:50:00.602Z,20.90
2022-09-10T21:52:46.558Z,20.81
2022-09-10T21:55:32.675Z,20.72
2022-09-10T21:58:18.466Z,20.72
2022-09-10T22:01:10.089Z,20.71
2022-09-10T22:04:00.579Z,20.72
2022-09-10T22:06:47.055Z,20.71
2022-09-10T22:09:33.826Z,20.68
2022-09-10T22:12:19.603Z,20.67
2022-09-10T22:15:06.794Z,20.65
2022-09-10T22:17:52.656Z,20.57
2022-09-10T22:20:38.338Z,20.61
2022-09-10T22:23:24.249Z,20.60
2022-09-10T22:26:17.949Z,20.55
2022-09-10T22:29:03.843Z,20.53
2022-09-10T22:31:50.212Z,20.51
2022-09-10T22:34:36.636Z,20.49
2022-09-10T22:37:22.601Z,20.46
2022-09-10T22:40:08.446Z,20.46
2022-09-10T22:42:54.525Z,20.43
2022-09-10T22:45:40.203Z,20.40
2022-09-10T22:48:26.016Z,20.40
2022-09-10T22:51:15.672Z,20.38
2022-09-10T22:54:03.887Z,20.36
2022-09-10T22:56:50.577Z,20.34
2022-09-10T22:59:38.000Z,20.33
2022-09-10T23:02:25.545Z,20.30
2022-09-10T23:05:13.239Z,20.29
2022-09-10T23:08:00.568Z,20.24
2022-09-10T23:10:47.736Z,20.20
2022-09-10T23:13:35.251Z,20.23
2022-09-10T23:16:36.767Z,20.18
2022-09-10T23:19:25.892Z,20.18
2022-09-10T23:22:12.906Z,20.16
2022-09-10T23:24:59.422Z,20.13
2022-09-10T23:27:48.735Z,20.07
2022-09-10T23:30:36.764Z,20.05
2022-09-10T23:33:23.506Z,19.93
2022-09-10T23:36:14.407Z,19.96
2022-09-10T23:39:02.672Z,19.91
2022-09-10T23:41:52.026Z,19.87
2022-09-10T23:44:39.020Z,19.82
2022-09-10T23:47:26.525Z,19.79
2022-09-10T23:50:15.284Z,19.72
2022-09-10T23:53:04.772Z,19.69
2022-09-10T23:55:52.508Z,19.61
2022-09-10T23:58:39.332Z,19.56
